sensor_id;sensor_type;location;lat;lon;timestamp;pressure;altitude;pressure_sealevel;temperature;humidity
71964;BME280;59834;52.124;5.422;2023-04-25T00:00:55;101128.44;;;5.22;100.00
71964;BME280;59834;52.124;5.422;2023-04-25T00:03:22;101135.44;;;5.19;100.00
71964;BME280;59834;52.124;5.422;2023-04-25T00:05:51;101136.41;;;5.17;100.00
71964;BME280;59834;52.124;5.422;2023-04-25T00:08:18;101142.53;;;5.14;100.00
71964;BME280;59834;52.124;5.422;2023-04-25T00:10:44;101143.47;;;5.13;100.00
71964;BME280;59834;52.124;5.422;2023-04-25T00:13:11;101147.66;;;5.16;100.00
71964;BME280;59834;52.124;5.422;2023-04-25T00:15:37;101147.63;;;5.17;100.00
71964;BME280;59834;52.124;5.422;2023-04-25T00:18:04;101139.66;;;5.22;100.00
71964;BME280;59834;52.124;5.422;2023-04-25T00:20:32;101148.25;;;5.24;100.00
71964;BME280;59834;52.124;5.422;2023-04-25T00:22:59;101151.75;;;5.23;100.00
71964;BME280;59834;52.124;5.422;2023-04-25T00:25:25;101144.72;;;5.27;100.00
71964;BME280;59834;52.124;5.422;2023-04-25T00:27:52;101150.63;;;5.30;100.00
71964;BME280;59834;52.124;5.422;2023-04-25T00:30:18;101155.81;;;5.30;100.00
71964;BME280;59834;52.124;5.422;2023-04-25T00:32:45;101154.06;;;5.31;100.00
71964;BME280;59834;52.124;5.422;2023-04-25T00:35:12;101157.44;;;5.33;100.00
71964;BME280;59834;52.124;5.422;2023-04-25T00:37:39;101153.22;;;5.30;100.00
71964;BME280;59834;52.124;5.422;2023-04-25T00:40:06;101157.53;;;5.30;99.88
71964;BME280;59834;52.124;5.422;2023-04-25T00:42:34;101159.38;;;5.28;99.65
71964;BME280;59834;52.124;5.422;2023-04-25T00:45:01;101162.13;;;5.23;99.70
71964;BME280;59834;52.124;5.422;2023-04-25T00:47:28;101159.53;;;5.23;99.15
71964;BME280;59834;52.124;5.422;2023-04-25T00:49:55;101162.06;;;5.25;99.86
71964;BME280;59834;52.124;5.422;2023-04-25T00:52:21;101160.31;;;5.25;99.62
71964;BME280;59834;52.124;5.422;2023-04-25T00:54:48;101158.56;;;5.26;99.51
71964;BME280;59834;52.124;5.422;2023-04-25T00:57:14;101155.22;;;5.22;98.89
71964;BME280;59834;52.124;5.422;2023-04-25T00:59:44;101157.06;;;5.20;99.61
71964;BME280;59834;52.124;5.422;2023-04-25T01:02:12;101154.47;;;5.20;99.74
71964;BME280;59834;52.124;5.422;2023-04-25T01:04:39;101155.34;;;5.19;99.56
71964;BME280;59834;52.124;5.422;2023-04-25T01:07:06;101159.78;;;5.15;98.87
71964;BME280;59834;52.124;5.422;2023-04-25T01:09:32;101159.91;;;5.12;99.73
71964;BME280;59834;52.124;5.422;2023-04-25T01:11:59;101154.81;;;5.09;99.58
71964;BME280;59834;52.124;5.422;2023-04-25T01:14:27;101164.53;;;5.04;99.84
71964;BME280;59834;52.124;5.422;2023-04-25T01:16:53;101168.91;;;5.02;99.25
71964;BME280;59834;52.124;5.422;2023-04-25T01:19:20;101168.19;;;4.99;100.00
71964;BME280;59834;52.124;5.422;2023-04-25T01:21:47;101170.88;;;4.95;99.37
71964;BME280;59834;52.124;5.422;2023-04-25T01:24:14;101169.38;;;4.90;99.46
71964;BME280;59834;52.124;5.422;2023-04-25T01:26:41;101171.25;;;4.85;99.70
71964;BME280;59834;52.124;5.422;2023-04-25T01:29:11;101175.69;;;4.81;100.00
71964;BME280;59834;52.124;5.422;2023-04-25T01:31:38;101186.25;;;4.77;99.69
71964;BME280;59834;52.124;5.422;2023-04-25T01:34:04;101176.91;;;4.71;99.95
71964;BME280;59834;52.124;5.422;2023-04-25T01:36:31;101182.16;;;4.69;99.78
71964;BME280;59834;52.124;5.422;2023-04-25T01:38:57;101189.16;;;4.66;99.81
71964;BME280;59834;52.124;5.422;2023-04-25T01:41:24;101187.66;;;4.60;99.93
71964;BME280;59834;52.124;5.422;2023-04-25T01:43:51;101186.06;;;4.56;100.00
71964;BME280;59834;52.124;5.422;2023-04-25T01:46:18;101188.75;;;4.53;100.00
71964;BME280;59834;52.124;5.422;2023-04-25T01:48:45;101185.41;;;4.49;100.00
71964;BME280;59834;52.124;5.422;2023-04-25T01:51:12;101194.97;;;4.47;100.00
71964;BME280;59834;52.124;5.422;2023-04-25T01:53:39;101190.78;;;4.43;100.00
71964;BME280;59834;52.124;5.422;2023-04-25T01:56:06;101196.91;;;4.41;100.00
71964;BME280;59834;52.124;5.422;2023-04-25T01:58:32;101194.38;;;4.39;100.00
71964;BME280;59834;52.124;5.422;2023-04-25T02:00:59;101204.78;;;4.38;99.72
71964;BME280;59834;52.124;5.422;2023-04-25T02:03:25;101191.13;;;4.33;99.64
71964;BME280;59834;52.124;5.422;2023-04-25T02:05:52;101204.19;;;4.30;100.00
71964;BME280;59834;52.124;5.422;2023-04-25T02:08:18;101206.88;;;4.27;100.00
71964;BME280;59834;52.124;5.422;2023-04-25T02:10:45;101211.25;;;4.24;100.00
71964;BME280;59834;52.124;5.422;2023-04-25T02:13:11;101212.25;;;4.20;100.00
71964;BME280;59834;52.124;5.422;2023-04-25T02:15:38;101208.06;;;4.16;100.00
71964;BME280;59834;52.124;5.422;2023-04-25T02:18:04;101209.84;;;4.14;100.00
71964;BME280;59834;52.124;5.422;2023-04-25T02:20:32;101211.69;;;4.11;100.00
71964;BME280;59834;52.124;5.422;2023-04-25T02:22:59;101214.41;;;4.06;100.00
71964;BME280;59834;52.124;5.422;2023-04-25T02:25:25;101217.09;;;4.03;100.00
71964;BME280;59834;52.124;5.422;2023-04-25T02:27:52;101212.00;;;4.00;100.00
71964;BME280;59834;52.124;5.422;2023-04-25T02:30:18;101211.16;;;3.99;100.00
71964;BME280;59834;52.124;5.422;2023-04-25T02:32:45;101214.72;;;3.95;100.00
71964;BME280;59834;52.124;5.422;2023-04-25T02:35:12;101215.63;;;3.94;100.00
71964;BME280;59834;52.124;5.422;2023-04-25T02:37:39;101212.28;;;3.91;100.00
71964;BME280;59834;52.124;5.422;2023-04-25T02:40:06;101214.06;;;3.89;100.00
71964;BME280;59834;52.124;5.422;2023-04-25T02:42:33;101219.22;;;3.89;100.00
71964;BME280;59834;52.124;5.422;2023-04-25T02:44:59;101214.06;;;3.89;100.00
71964;BME280;59834;52.124;5.422;2023-04-25T02:47:26;101224.31;;;3.92;100.00
71964;BME280;59834;52.124;5.422;2023-04-25T02:49:53;101219.13;;;3.93;100.00
71964;BME280;59834;52.124;5.422;2023-04-25T02:52:19;101213.88;;;3.95;100.00
71964;BME280;59834;52.124;5.422;2023-04-25T02:54:47;101212.09;;;3.97;100.00
71964;BME280;59834;52.124;5.422;2023-04-25T02:57:13;101212.94;;;3.97;100.00
71964;BME280;59834;52.124;5.422;2023-04-25T02:59:40;101218.03;;;4.00;100.00
71964;BME280;59834;52.124;5.422;2023-04-25T03:02:06;101217.97;;;4.02;100.00
71964;BME280;59834;52.124;5.422;2023-04-25T03:04:33;101223.13;;;4.04;100.00
71964;BME280;59834;52.124;5.422;2023-04-25T03:06:59;101219.69;;;4.03;100.00
71964;BME280;59834;52.124;5.422;2023-04-25T03:09:27;101221.47;;;4.01;100.00
71964;BME280;59834;52.124;5.422;2023-04-25T03:11:53;101223.25;;;3.99;100.00
71964;BME280;59834;52.124;5.422;2023-04-25T03:14:20;101215.69;;;3.93;100.00
71964;BME280;59834;52.124;5.422;2023-04-25T03:16:46;101221.81;;;3.89;100.00
71964;BME280;59834;52.124;5.422;2023-04-25T03:19:12;101226.16;;;3.88;100.00
71964;BME280;59834;52.124;5.422;2023-04-25T03:21:42;101224.53;;;3.86;100.00
71964;BME280;59834;52.124;5.422;2023-04-25T03:24:09;101230.50;;;3.88;100.00
71964;BME280;59834;52.124;5.422;2023-04-25T03:26:37;101232.25;;;3.87;100.00
71964;BME280;59834;52.124;5.422;2023-04-25T03:29:04;101239.16;;;3.87;100.00
71964;BME280;59834;52.124;5.422;2023-04-25T03:31:30;101232.31;;;3.86;100.00
71964;BME280;59834;52.124;5.422;2023-04-25T03:33:57;101237.50;;;3.84;100.00
71964;BME280;59834;52.124;5.422;2023-04-25T03:36:24;101234.91;;;3.84;100.00
71964;BME280;59834;52.124;5.422;2023-04-25T03:38:50;101241.75;;;3.87;100.00
71964;BME280;59834;52.124;5.422;2023-04-25T03:41:17;101248.53;;;3.91;100.00
71964;BME280;59834;52.124;5.422;2023-04-25T03:43:43;101244.16;;;3.93;100.00
71964;BME280;59834;52.124;5.422;2023-04-25T03:46:09;101248.34;;;3.97;100.00
71964;BME280;59834;52.124;5.422;2023-04-25T03:48:36;101246.56;;;3.99;100.00
71964;BME280;59834;52.124;5.422;2023-04-25T03:51:03;101256.81;;;4.02;100.00
71964;BME280;59834;52.124;5.422;2023-04-25T03:53:29;101255.00;;;4.06;100.00
71964;BME280;59834;52.124;5.422;2023-04-25T03:55:56;101256.66;;;4.08;99.83
71964;BME280;59834;52.124;5.422;2023-04-25T03:58:22;101253.06;;;4.12;100.00
71964;BME280;59834;52.124;5.422;2023-04-25T04:00:50;101259.91;;;4.15;99.30
71964;BME280;59834;52.124;5.422;2023-04-25T04:03:16;101252.94;;;4.17;99.13
71964;BME280;59834;52.124;5.422;2023-04-25T04:05:43;101252.88;;;4.18;98.64
71964;BME280;59834;52.124;5.422;2023-04-25T04:08:11;101258.91;;;4.19;98.40
71964;BME280;59834;52.124;5.422;2023-04-25T04:10:38;101267.50;;;4.21;98.66
71964;BME280;59834;52.124;5.422;2023-04-25T04:13:04;101268.41;;;4.20;98.86
71964;BME280;59834;52.124;5.422;2023-04-25T04:15:31;101267.56;;;4.19;98.60
71964;BME280;59834;52.124;5.422;2023-04-25T04:17:59;101263.22;;;4.20;98.43
71964;BME280;59834;52.124;5.422;2023-04-25T04:20:29;101273.53;;;4.21;98.45
71964;BME280;59834;52.124;5.422;2023-04-25T04:22:56;101276.09;;;4.23;97.89
71964;BME280;59834;52.124;5.422;2023-04-25T04:25:23;101269.94;;;4.25;97.95
71964;BME280;59834;52.124;5.422;2023-04-25T04:27:50;101266.38;;;4.30;96.73
71964;BME280;59834;52.124;5.422;2023-04-25T04:30:24;101269.75;;;4.32;97.04
71964;BME280;59834;52.124;5.422;2023-04-25T04:32:51;101267.97;;;4.34;96.62
71964;BME280;59834;52.124;5.422;2023-04-25T04:35:18;101280.94;;;4.34;96.61
71964;BME280;59834;52.124;5.422;2023-04-25T04:37:45;101273.09;;;4.35;96.21
71964;BME280;59834;52.124;5.422;2023-04-25T04:40:12;101282.59;;;4.36;96.34
71964;BME280;59834;52.124;5.422;2023-04-25T04:42:42;101288.66;;;4.35;96.05
71964;BME280;59834;52.124;5.422;2023-04-25T04:45:09;101286.91;;;4.36;96.25
71964;BME280;59834;52.124;5.422;2023-04-25T04:47:36;101286.03;;;4.37;96.38
71964;BME280;59834;52.124;5.422;2023-04-25T04:50:03;101292.00;;;4.39;95.64
71964;BME280;59834;52.124;5.422;2023-04-25T04:52:30;101304.94;;;4.40;95.74
71964;BME280;59834;52.124;5.422;2023-04-25T04:54:56;101297.94;;;4.42;95.20
71964;BME280;59834;52.124;5.422;2023-04-25T04:57:23;101299.59;;;4.45;95.09
71964;BME280;59834;52.124;5.422;2023-04-25T04:59:49;101307.28;;;4.48;94.36
71964;BME280;59834;52.124;5.422;2023-04-25T05:02:16;101307.25;;;4.49;94.96
71964;BME280;59834;52.124;5.422;2023-04-25T05:04:43;101309.84;;;4.49;93.71
71964;BME280;59834;52.124;5.422;2023-04-25T05:07:09;101310.69;;;4.50;94.23
71964;BME280;59834;52.124;5.422;2023-04-25T05:09:36;101319.31;;;4.51;93.90
71964;BME280;59834;52.124;5.422;2023-04-25T05:12:02;101320.09;;;4.53;93.90
71964;BME280;59834;52.124;5.422;2023-04-25T05:14:29;101327.84;;;4.54;94.00
71964;BME280;59834;52.124;5.422;2023-04-25T05:16:55;101332.94;;;4.57;94.17
71964;BME280;59834;52.124;5.422;2023-04-25T05:19:22;101329.44;;;4.58;94.31
71964;BME280;59834;52.124;5.422;2023-04-25T05:21:49;101333.78;;;4.58;94.39
71964;BME280;59834;52.124;5.422;2023-04-25T05:24:16;101339.78;;;4.58;93.97
71964;BME280;59834;52.124;5.422;2023-04-25T05:26:42;101338.81;;;4.62;93.88
71964;BME280;59834;52.124;5.422;2023-04-25T05:29:09;101338.72;;;4.65;93.74
71964;BME280;59834;52.124;5.422;2023-04-25T05:31:36;101346.41;;;4.68;93.66
71964;BME280;59834;52.124;5.422;2023-04-25T05:34:02;101356.59;;;4.75;93.76
71964;BME280;59834;52.124;5.422;2023-04-25T05:36:29;101351.31;;;4.78;93.56
71964;BME280;59834;52.124;5.422;2023-04-25T05:38:57;101346.03;;;4.81;93.41
71964;BME280;59834;52.124;5.422;2023-04-25T05:41:23;101350.28;;;4.83;92.45
71964;BME280;59834;52.124;5.422;2023-04-25T05:43:50;101352.72;;;4.88;92.42
71964;BME280;59834;52.124;5.422;2023-04-25T05:46:17;101350.84;;;4.93;92.94
71964;BME280;59834;52.124;5.422;2023-04-25T05:48:44;101351.47;;;5.00;92.53
71964;BME280;59834;52.124;5.422;2023-04-25T05:51:10;101353.84;;;5.07;92.08
71964;BME280;59834;52.124;5.422;2023-04-25T05:53:37;101357.94;;;5.13;91.25
71964;BME280;59834;52.124;5.422;2023-04-25T05:56:03;101363.78;;;5.19;91.54
71964;BME280;59834;52.124;5.422;2023-04-25T05:58:30;101364.56;;;5.23;91.25
71964;BME280;59834;52.124;5.422;2023-04-25T06:00:56;101373.03;;;5.28;91.75
71964;BME280;59834;52.124;5.422;2023-04-25T06:03:23;101367.59;;;5.36;91.21
71964;BME280;59834;52.124;5.422;2023-04-25T06:05:50;101375.91;;;5.46;90.61
71964;BME280;59834;52.124;5.422;2023-04-25T06:08:16;101378.13;;;5.56;90.45
71964;BME280;59834;52.124;5.422;2023-04-25T06:10:43;101384.72;;;5.66;90.19
71964;BME280;59834;52.124;5.422;2023-04-25T06:13:09;101387.09;;;5.73;88.76
71964;BME280;59834;52.124;5.422;2023-04-25T06:15:36;101385.16;;;5.79;88.10
71964;BME280;59834;52.124;5.422;2023-04-25T06:18:02;101394.50;;;5.85;88.02
71964;BME280;59834;52.124;5.422;2023-04-25T06:20:29;101388.00;;;5.98;88.36
71964;BME280;59834;52.124;5.422;2023-04-25T06:22:55;101390.09;;;6.12;86.75
71964;BME280;59834;52.124;5.422;2023-04-25T06:25:22;101394.34;;;6.38;86.51
71964;BME280;59834;52.124;5.422;2023-04-25T06:27:49;101391.00;;;6.58;84.79
71964;BME280;59834;52.124;5.422;2023-04-25T06:30:15;101385.63;;;6.63;83.16
71964;BME280;59834;52.124;5.422;2023-04-25T06:32:44;101391.44;;;6.91;83.69
71964;BME280;59834;52.124;5.422;2023-04-25T06:35:11;101391.94;;;7.43;82.62
71964;BME280;59834;52.124;5.422;2023-04-25T06:37:38;101383.69;;;8.72;78.25
71964;BME280;59834;52.124;5.422;2023-04-25T06:40:05;101390.66;;;8.13;77.83
71964;BME280;59834;52.124;5.422;2023-04-25T06:42:32;101390.31;;;7.61;78.43
71964;BME280;59834;52.124;5.422;2023-04-25T06:44:58;101401.28;;;7.27;80.07
71964;BME280;59834;52.124;5.422;2023-04-25T06:47:25;101402.88;;;7.09;80.02
71964;BME280;59834;52.124;5.422;2023-04-25T06:49:51;101400.72;;;6.98;80.80
71964;BME280;59834;52.124;5.422;2023-04-25T06:52:18;101404.09;;;7.00;79.75
71964;BME280;59834;52.124;5.422;2023-04-25T06:54:45;101410.88;;;7.04;79.48
71964;BME280;59834;52.124;5.422;2023-04-25T06:57:11;101403.31;;;6.98;79.70
71964;BME280;59834;52.124;5.422;2023-04-25T06:59:38;101406.81;;;6.97;79.23
71964;BME280;59834;52.124;5.422;2023-04-25T07:02:05;101412.69;;;7.02;79.22
71964;BME280;59834;52.124;5.422;2023-04-25T07:04:32;101413.22;;;7.11;78.70
71964;BME280;59834;52.124;5.422;2023-04-25T07:06:59;101414.63;;;7.19;78.13
71964;BME280;59834;52.124;5.422;2023-04-25T07:09:27;101421.63;;;7.17;78.25
71964;BME280;59834;52.124;5.422;2023-04-25T07:11:53;101425.56;;;7.27;78.24
71964;BME280;59834;52.124;5.422;2023-04-25T07:14:20;101418.34;;;7.34;77.51
71964;BME280;59834;52.124;5.422;2023-04-25T07:16:46;101423.03;;;7.26;77.00
71964;BME280;59834;52.124;5.422;2023-04-25T07:19:13;101429.16;;;7.25;77.42
71964;BME280;59834;52.124;5.422;2023-04-25T07:21:42;101429.81;;;7.30;77.25
71964;BME280;59834;52.124;5.422;2023-04-25T07:24:09;101435.69;;;7.35;77.31
71964;BME280;59834;52.124;5.422;2023-04-25T07:26:35;101440.38;;;7.47;75.89
71964;BME280;59834;52.124;5.422;2023-04-25T07:29:01;101443.75;;;7.92;76.72
71964;BME280;59834;52.124;5.422;2023-04-25T07:31:28;101440.56;;;8.24;74.89
71964;BME280;59834;52.124;5.422;2023-04-25T07:33:55;101445.88;;;8.43;72.93
71964;BME280;59834;52.124;5.422;2023-04-25T07:36:21;101444.47;;;8.35;72.18
71964;BME280;59834;52.124;5.422;2023-04-25T07:38:47;101441.72;;;8.19;73.30
71964;BME280;59834;52.124;5.422;2023-04-25T07:41:15;101440.34;;;8.10;74.00
71964;BME280;59834;52.124;5.422;2023-04-25T07:43:41;101447.72;;;8.00;73.03
71964;BME280;59834;52.124;5.422;2023-04-25T07:46:08;101455.78;;;7.94;72.88
71964;BME280;59834;52.124;5.422;2023-04-25T07:48:34;101452.53;;;8.10;72.72
71964;BME280;59834;52.124;5.422;2023-04-25T07:51:01;101463.22;;;8.24;72.28
71964;BME280;59834;52.124;5.422;2023-04-25T07:53:27;101459.63;;;8.26;70.44
71964;BME280;59834;52.124;5.422;2023-04-25T07:55:54;101474.03;;;8.15;70.15
71964;BME280;59834;52.124;5.422;2023-04-25T07:58:20;101464.84;;;8.06;69.18
71964;BME280;59834;52.124;5.422;2023-04-25T08:00:48;101471.31;;;7.97;69.07
71964;BME280;59834;52.124;5.422;2023-04-25T08:03:15;101476.50;;;7.97;69.22
71964;BME280;59834;52.124;5.422;2023-04-25T08:05:42;101480.03;;;8.17;67.21
71964;BME280;59834;52.124;5.422;2023-04-25T08:08:09;101487.38;;;8.48;67.07
71964;BME280;59834;52.124;5.422;2023-04-25T08:10:35;101483.75;;;8.52;67.19
71964;BME280;59834;52.124;5.422;2023-04-25T08:13:02;101484.16;;;8.43;65.75
71964;BME280;59834;52.124;5.422;2023-04-25T08:15:28;101486.28;;;8.54;65.82
71964;BME280;59834;52.124;5.422;2023-04-25T08:17:55;101485.03;;;8.62;66.11
71964;BME280;59834;52.124;5.422;2023-04-25T08:20:21;101493.22;;;8.73;65.22
71964;BME280;59834;52.124;5.422;2023-04-25T08:22:49;101490.38;;;8.78;65.22
71964;BME280;59834;52.124;5.422;2023-04-25T08:25:17;101509.25;;;8.25;66.85
71964;BME280;59834;52.124;5.422;2023-04-25T08:27:44;101525.41;;;7.92;67.40
71964;BME280;59834;52.124;5.422;2023-04-25T08:30:11;101521.31;;;7.65;69.90
71964;BME280;59834;52.124;5.422;2023-04-25T08:32:37;101520.34;;;7.45;68.88
71964;BME280;59834;52.124;5.422;2023-04-25T08:35:05;101523.19;;;7.39;69.21
71964;BME280;59834;52.124;5.422;2023-04-25T08:37:32;101522.41;;;7.59;70.13
71964;BME280;59834;52.124;5.422;2023-04-25T08:39:58;101530.09;;;7.62;67.91
71964;BME280;59834;52.124;5.422;2023-04-25T08:42:26;101526.09;;;7.75;68.18
71964;BME280;59834;52.124;5.422;2023-04-25T08:44:53;101531.66;;;7.88;67.22
71964;BME280;59834;52.124;5.422;2023-04-25T08:47:22;101530.63;;;7.92;67.20
71964;BME280;59834;52.124;5.422;2023-04-25T08:49:49;101531.13;;;8.00;65.74
71964;BME280;59834;52.124;5.422;2023-04-25T08:52:23;101543.91;;;8.07;66.70
71964;BME280;59834;52.124;5.422;2023-04-25T08:54:54;101540.13;;;8.14;66.24
71964;BME280;59834;52.124;5.422;2023-04-25T08:57:21;101536.47;;;8.40;64.29
71964;BME280;59834;52.124;5.422;2023-04-25T08:59:48;101545.19;;;8.59;65.50
71964;BME280;59834;52.124;5.422;2023-04-25T09:02:15;101550.50;;;8.77;62.91
71964;BME280;59834;52.124;5.422;2023-04-25T09:04:44;101557.59;;;8.93;63.80
71964;BME280;59834;52.124;5.422;2023-04-25T09:07:11;101548.97;;;8.91;62.79
71964;BME280;59834;52.124;5.422;2023-04-25T09:09:38;101564.75;;;8.88;62.50
71964;BME280;59834;52.124;5.422;2023-04-25T09:12:06;101562.03;;;9.10;62.04
71964;BME280;59834;52.124;5.422;2023-04-25T09:14:32;101560.47;;;9.25;61.05
71964;BME280;59834;52.124;5.422;2023-04-25T09:17:01;101563.91;;;9.44;61.01
71964;BME280;59834;52.124;5.422;2023-04-25T09:19:36;101564.75;;;9.64;61.70
71964;BME280;59834;52.124;5.422;2023-04-25T09:22:07;101571.50;;;9.68;59.82
71964;BME280;59834;52.124;5.422;2023-04-25T09:24:40;101577.50;;;9.34;59.20
71964;BME280;59834;52.124;5.422;2023-04-25T09:27:12;101575.53;;;8.81;60.31
71964;BME280;59834;52.124;5.422;2023-04-25T09:29:40;101583.78;;;8.71;60.46
71964;BME280;59834;52.124;5.422;2023-04-25T09:32:17;101579.00;;;8.81;60.57
71964;BME280;59834;52.124;5.422;2023-04-25T09:34:49;101580.00;;;8.97;60.28
71964;BME280;59834;52.124;5.422;2023-04-25T09:37:21;101587.50;;;9.05;59.97
71964;BME280;59834;52.124;5.422;2023-04-25T09:39:50;101584.28;;;9.19;60.71
71964;BME280;59834;52.124;5.422;2023-04-25T09:42:17;101588.94;;;9.12;61.71
71964;BME280;59834;52.124;5.422;2023-04-25T09:44:45;101584.88;;;8.86;62.42
71964;BME280;59834;52.124;5.422;2023-04-25T09:47:14;101606.44;;;8.50;63.42
71964;BME280;59834;52.124;5.422;2023-04-25T09:49:42;101616.91;;;8.29;64.26
71964;BME280;59834;52.124;5.422;2023-04-25T09:52:13;101616.56;;;8.16;66.05
71964;BME280;59834;52.124;5.422;2023-04-25T09:54:39;101619.69;;;8.24;66.16
71964;BME280;59834;52.124;5.422;2023-04-25T09:57:17;101636.19;;;8.46;65.52
71964;BME280;59834;52.124;5.422;2023-04-25T09:59:49;101640.19;;;8.55;66.56
71964;BME280;59834;52.124;5.422;2023-04-25T10:02:18;101641.06;;;8.74;64.91
71964;BME280;59834;52.124;5.422;2023-04-25T10:04:53;101651.97;;;8.84;63.94
71964;BME280;59834;52.124;5.422;2023-04-25T10:07:23;101646.22;;;8.96;63.88
71964;BME280;59834;52.124;5.422;2023-04-25T10:09:59;101642.34;;;9.05;63.31
71964;BME280;59834;52.124;5.422;2023-04-25T10:12:27;101638.69;;;9.28;63.62
71964;BME280;59834;52.124;5.422;2023-04-25T10:14:54;101638.91;;;9.80;61.12
71964;BME280;59834;52.124;5.422;2023-04-25T10:17:21;101629.19;;;10.01;60.77
71964;BME280;59834;52.124;5.422;2023-04-25T10:19:48;101627.81;;;10.11;61.15
71964;BME280;59834;52.124;5.422;2023-04-25T10:22:34;101620.19;;;9.89;58.43
71964;BME280;59834;52.124;5.422;2023-04-25T10:25:02;101635.63;;;9.94;55.77
71964;BME280;59834;52.124;5.422;2023-04-25T10:27:31;101635.75;;;9.55;56.10
71964;BME280;59834;52.124;5.422;2023-04-25T10:32:31;101625.69;;;9.83;57.73
71964;BME280;59834;52.124;5.422;2023-04-25T10:38:06;101621.59;;;9.78;59.13
71964;BME280;59834;52.124;5.422;2023-04-25T10:40:35;101637.06;;;9.82;56.29
71964;BME280;59834;52.124;5.422;2023-04-25T10:46:01;101629.31;;;9.98;56.14
71964;BME280;59834;52.124;5.422;2023-04-25T10:48:29;101618.19;;;10.12;54.51
71964;BME280;59834;52.124;5.422;2023-04-25T10:51:15;101638.97;;;10.15;54.57
71964;BME280;59834;52.124;5.422;2023-04-25T10:53:44;101627.34;;;10.40;54.94
71964;BME280;59834;52.124;5.422;2023-04-25T10:56:18;101631.03;;;10.70;54.74
71964;BME280;59834;52.124;5.422;2023-04-25T10:58:45;101621.88;;;10.95;53.04
71964;BME280;59834;52.124;5.422;2023-04-25T11:01:19;101631.72;;;11.23;53.23
71964;BME280;59834;52.124;5.422;2023-04-25T11:03:46;101624.75;;;11.55;52.81
71964;BME280;59834;52.124;5.422;2023-04-25T11:06:20;101631.22;;;11.16;53.08
71964;BME280;59834;52.124;5.422;2023-04-25T11:08:51;101636.09;;;10.56;55.60
71964;BME280;59834;52.124;5.422;2023-04-25T11:11:19;101630.72;;;10.42;53.87
71964;BME280;59834;52.124;5.422;2023-04-25T11:13:49;101649.59;;;10.12;55.98
71964;BME280;59834;52.124;5.422;2023-04-25T11:16:17;101660.25;;;9.71;59.85
71964;BME280;59834;52.124;5.422;2023-04-25T11:18:48;101663.19;;;9.07;61.99
71964;BME280;59834;52.124;5.422;2023-04-25T11:21:15;101677.41;;;9.20;64.58
71964;BME280;59834;52.124;5.422;2023-04-25T11:23:45;101671.50;;;9.15;64.74
71964;BME280;59834;52.124;5.422;2023-04-25T11:26:13;101682.78;;;8.96;65.42
71964;BME280;59834;52.124;5.422;2023-04-25T11:28:40;101679.38;;;8.74;67.14
71964;BME280;59834;52.124;5.422;2023-04-25T11:31:07;101683.63;;;8.56;67.42
71964;BME280;59834;52.124;5.422;2023-04-25T11:33:36;101691.88;;;8.45;67.40
71964;BME280;59834;52.124;5.422;2023-04-25T11:36:02;101680.09;;;8.35;67.69
71964;BME280;59834;52.124;5.422;2023-04-25T11:38:29;101682.84;;;8.32;66.86
71964;BME280;59834;52.124;5.422;2023-04-25T11:40:56;101680.53;;;8.46;66.68
71964;BME280;59834;52.124;5.422;2023-04-25T11:43:25;101684.38;;;8.58;65.89
71964;BME280;59834;52.124;5.422;2023-04-25T11:45:52;101690.63;;;8.76;65.01
71964;BME280;59834;52.124;5.422;2023-04-25T11:48:19;101687.59;;;9.06;63.68
71964;BME280;59834;52.124;5.422;2023-04-25T11:50:51;101686.50;;;9.30;60.38
71964;BME280;59834;52.124;5.422;2023-04-25T11:53:18;101685.56;;;9.71;60.64
71964;BME280;59834;52.124;5.422;2023-04-25T11:55:45;101686.34;;;10.09;58.33
71964;BME280;59834;52.124;5.422;2023-04-25T11:58:11;101681.63;;;10.17;57.19
71964;BME280;59834;52.124;5.422;2023-04-25T12:00:42;101680.97;;;10.66;56.06
71964;BME280;59834;52.124;5.422;2023-04-25T12:03:17;101679.06;;;10.69;56.17
71964;BME280;59834;52.124;5.422;2023-04-25T12:05:46;101671.88;;;10.73;56.32
71964;BME280;59834;52.124;5.422;2023-04-25T12:08:13;101679.06;;;10.87;54.16
71964;BME280;59834;52.124;5.422;2023-04-25T12:10:42;101674.69;;;10.87;56.04
71964;BME280;59834;52.124;5.422;2023-04-25T12:13:20;101679.00;;;10.71;55.49
71964;BME280;59834;52.124;5.422;2023-04-25T12:15:47;101677.13;;;10.38;57.19
71964;BME280;59834;52.124;5.422;2023-04-25T12:18:14;101681.66;;;10.15;56.40
71964;BME280;59834;52.124;5.422;2023-04-25T12:20:41;101689.97;;;10.06;56.30
71964;BME280;59834;52.124;5.422;2023-04-25T12:23:09;101690.66;;;10.29;54.84
71964;BME280;59834;52.124;5.422;2023-04-25T12:25:42;101689.81;;;10.46;55.55
71964;BME280;59834;52.124;5.422;2023-04-25T12:28:20;101695.38;;;10.40;55.45
71964;BME280;59834;52.124;5.422;2023-04-25T12:30:56;101702.75;;;10.12;56.28
71964;BME280;59834;52.124;5.422;2023-04-25T12:33:25;101701.63;;;9.99;54.64
71964;BME280;59834;52.124;5.422;2023-04-25T12:35:52;101698.53;;;10.10;55.64
71964;BME280;59834;52.124;5.422;2023-04-25T12:38:29;101701.00;;;10.13;55.80
71964;BME280;59834;52.124;5.422;2023-04-25T12:40:57;101704.19;;;10.01;55.94
71964;BME280;59834;52.124;5.422;2023-04-25T12:43:24;101703.91;;;10.07;54.54
71964;BME280;59834;52.124;5.422;2023-04-25T12:45:52;101696.28;;;10.38;54.23
71964;BME280;59834;52.124;5.422;2023-04-25T12:48:19;101706.69;;;10.40;54.33
71964;BME280;59834;52.124;5.422;2023-04-25T12:50:48;101700.00;;;10.69;51.63
71964;BME280;59834;52.124;5.422;2023-04-25T12:53:16;101695.31;;;10.76;52.11
71964;BME280;59834;52.124;5.422;2023-04-25T12:55:43;101703.25;;;10.74;51.25
71964;BME280;59834;52.124;5.422;2023-04-25T12:58:18;101700.91;;;11.03;51.34
71964;BME280;59834;52.124;5.422;2023-04-25T13:00:45;101689.63;;;11.18;49.94
71964;BME280;59834;52.124;5.422;2023-04-25T13:03:12;101696.72;;;11.16;50.66
71964;BME280;59834;52.124;5.422;2023-04-25T13:05:40;101704.88;;;11.27;49.59
71964;BME280;59834;52.124;5.422;2023-04-25T13:08:07;101693.34;;;11.14;49.88